createdAt,value
2022-07-29T00:00:07.066Z,1.90
2022-07-29T00:02:50.105Z,2.10
2022-07-29T00:05:34.471Z,1.73
2022-07-29T00:08:17.537Z,1.40
2022-07-29T00:11:00.483Z,1.70
2022-07-29T00:13:47.659Z,1.55
2022-07-29T00:16:33.648Z,1.50
2022-07-29T00:19:16.621Z,1.17
2022-07-29T00:22:00.911Z,1.50
2022-07-29T00:24:43.916Z,1.60
2022-07-29T00:27:26.904Z,1.75
2022-07-29T00:30:10.492Z,1.50
2022-07-29T00:32:53.449Z,1.52
2022-07-29T00:35:44.971Z,1.60
2022-07-29T00:38:29.276Z,1.50
2022-07-29T00:41:12.257Z,1.70
2022-07-29T00:43:55.236Z,2.00
2022-07-29T00:46:38.227Z,1.95
2022-07-29T00:49:21.359Z,1.50
2022-07-29T00:52:04.960Z,1.80
2022-07-29T00:54:49.301Z,1.70
2022-07-29T00:57:32.450Z,2.00
2022-07-29T01:00:18.359Z,1.40
2022-07-29T01:03:01.388Z,1.58
2022-07-29T01:05:51.092Z,1.58
2022-07-29T01:08:35.193Z,1.48
2022-07-29T01:11:20.415Z,1.38
2022-07-29T01:14:03.873Z,1.50
2022-07-29T01:16:53.297Z,1.67
2022-07-29T01:19:50.728Z,1.63
2022-07-29T01:22:42.669Z,1.45
2022-07-29T01:25:55.892Z,1.60
2022-07-29T01:28:51.389Z,1.42
2022-07-29T01:31:53.783Z,1.50
2022-07-29T01:34:50.668Z,1.30
2022-07-29T01:37:41.744Z,1.55
2022-07-29T01:40:29.437Z,1.40
2022-07-29T01:43:15.236Z,1.50
2022-07-29T01:46:03.861Z,1.50
2022-07-29T01:48:51.471Z,1.63
2022-07-29T01:51:42.156Z,1.65
2022-07-29T01:54:31.365Z,1.63
2022-07-29T01:57:19.250Z,1.65
2022-07-29T02:00:04.256Z,1.67
2022-07-29T02:02:58.131Z,1.60
2022-07-29T02:05:44.613Z,1.48
2022-07-29T02:08:28.979Z,1.58
2022-07-29T02:11:12.550Z,1.48
2022-07-29T02:13:58.552Z,1.77
2022-07-29T02:16:43.295Z,1.67
2022-07-29T02:22:14.377Z,1.40
2022-07-29T02:24:58.278Z,1.60
2022-07-29T02:27:44.663Z,1.70
2022-07-29T02:30:29.684Z,1.70
2022-07-29T02:33:15.646Z,1.75
2022-07-29T02:36:01.568Z,1.70
2022-07-29T02:38:58.463Z,1.70
2022-07-29T02:41:45.705Z,1.88
2022-07-29T02:44:34.134Z,1.70
2022-07-29T02:47:22.660Z,1.60
2022-07-29T02:50:11.276Z,1.80
2022-07-29T02:53:00.746Z,1.60
2022-07-29T02:55:50.158Z,1.83
2022-07-29T02:58:35.486Z,2.10
2022-07-29T03:01:22.718Z,1.98
2022-07-29T03:04:07.012Z,1.90
2022-07-29T03:06:51.768Z,2.17
2022-07-29T03:12:20.150Z,1.60
2022-07-29T03:15:03.719Z,1.83
2022-07-29T03:17:47.902Z,1.70
2022-07-29T03:20:31.022Z,1.65
2022-07-29T03:23:14.019Z,1.45
2022-07-29T03:25:58.905Z,2.13
2022-07-29T03:28:41.907Z,1.80
2022-07-29T03:31:25.054Z,2.10
2022-07-29T03:34:08.030Z,2.00
2022-07-29T03:36:51.682Z,2.22
2022-07-29T03:39:39.056Z,1.98
2022-07-29T03:42:29.906Z,1.65
2022-07-29T03:45:19.462Z,1.73
2022-07-29T03:48:14.951Z,1.70
2022-07-29T03:50:58.126Z,1.63
2022-07-29T03:53:41.082Z,1.40
2022-07-29T03:56:25.376Z,1.38
2022-07-29T03:59:10.279Z,1.50
2022-07-29T04:01:54.011Z,1.40
2022-07-29T04:04:37.774Z,1.70
2022-07-29T04:07:20.728Z,1.67
2022-07-29T04:10:03.900Z,1.70
2022-07-29T04:12:46.876Z,1.63
2022-07-29T04:15:31.968Z,1.40
2022-07-29T04:18:15.020Z,1.70
2022-07-29T04:21:00.136Z,1.50
2022-07-29T04:23:53.094Z,1.33
2022-07-29T04:26:37.239Z,1.38
2022-07-29T04:29:20.853Z,1.50
2022-07-29T04:32:05.638Z,1.58
2022-07-29T04:37:31.316Z,1.45
2022-07-29T04:40:14.620Z,1.70
2022-07-29T04:42:57.548Z,1.60
2022-07-29T04:45:43.569Z,1.38
2022-07-29T04:48:28.921Z,1.75
2022-07-29T04:51:11.948Z,1.63
2022-07-29T04:53:54.867Z,2.20
2022-07-29T04:56:37.841Z,2.50
2022-07-29T04:59:20.762Z,1.80
2022-07-29T05:02:03.717Z,1.83
2022-07-29T05:04:48.003Z,2.28
2022-07-29T05:07:30.950Z,2.08
2022-07-29T05:10:13.913Z,1.90
2022-07-29T05:12:56.879Z,1.98
2022-07-29T05:15:40.121Z,1.90
2022-07-29T05:18:25.987Z,1.75
2022-07-29T05:21:10.588Z,1.98
2022-07-29T05:23:53.551Z,1.75
2022-07-29T05:26:36.507Z,1.63
2022-07-29T05:29:43.066Z,1.60
2022-07-29T05:32:22.551Z,1.30
2022-07-29T05:35:06.039Z,1.73
2022-07-29T05:37:50.354Z,1.90
2022-07-29T05:40:33.443Z,1.98
2022-07-29T05:43:16.366Z,1.80
2022-07-29T05:45:59.523Z,1.77
2022-07-29T05:48:42.615Z,1.88
2022-07-29T05:51:25.693Z,1.88
2022-07-29T05:54:09.950Z,1.30
2022-07-29T05:56:52.871Z,1.80
2022-07-29T05:59:37.933Z,1.73
2022-07-29T06:02:20.954Z,1.52
2022-07-29T06:05:04.397Z,1.75
2022-07-29T06:07:50.020Z,1.92
2022-07-29T06:10:36.919Z,1.98
2022-07-29T06:13:19.849Z,1.63
2022-07-29T06:16:02.903Z,1.77
2022-07-29T06:18:45.924Z,1.85
2022-07-29T06:21:28.842Z,2.00
2022-07-29T06:24:13.453Z,2.10
2022-07-29T06:26:58.074Z,2.20
2022-07-29T06:29:41.196Z,2.20
2022-07-29T06:32:24.127Z,2.60
2022-07-29T06:35:37.649Z,2.30
2022-07-29T06:38:31.439Z,2.20
2022-07-29T06:41:17.847Z,2.00
2022-07-29T06:44:02.358Z,1.77
2022-07-29T06:46:45.602Z,1.88
2022-07-29T06:49:28.734Z,1.65
2022-07-29T06:52:11.699Z,2.10
2022-07-29T06:54:56.009Z,2.10
2022-07-29T06:57:38.957Z,2.28
2022-07-29T07:00:23.438Z,2.35
2022-07-29T07:03:06.392Z,2.13
2022-07-29T07:05:49.376Z,2.20
2022-07-29T07:08:32.542Z,2.60
2022-07-29T07:11:15.593Z,2.17
2022-07-29T07:14:03.111Z,2.30
2022-07-29T07:16:48.081Z,2.17
2022-07-29T07:19:35.730Z,2.17
2022-07-29T07:22:18.674Z,1.90
2022-07-29T07:25:01.621Z,1.90
2022-07-29T07:27:44.580Z,1.88
2022-07-29T07:30:29.134Z,1.83
2022-07-29T07:33:13.532Z,1.98
2022-07-29T07:35:56.550Z,2.00
2022-07-29T07:38:39.468Z,2.13
2022-07-29T07:41:37.310Z,1.80
2022-07-29T07:44:51.355Z,2.10
2022-07-29T07:47:39.448Z,2.20
2022-07-29T07:50:24.925Z,2.15
2022-07-29T07:53:07.991Z,2.60
2022-07-29T07:56:09.922Z,2.40
2022-07-29T07:58:53.716Z,1.73
2022-07-29T08:01:47.616Z,2.40
2022-07-29T08:04:38.333Z,1.98
2022-07-29T08:07:22.656Z,2.15
2022-07-29T08:10:06.599Z,2.15
2022-07-29T08:12:49.555Z,2.00
2022-07-29T08:15:32.493Z,2.33
2022-07-29T08:18:15.784Z,2.10
2022-07-29T08:20:59.099Z,2.13
2022-07-29T08:23:53.166Z,2.90
2022-07-29T08:26:37.447Z,2.88
2022-07-29T08:29:20.421Z,2.83
2022-07-29T08:32:03.383Z,2.60
2022-07-29T08:34:47.283Z,2.53
2022-07-29T08:37:30.270Z,2.67
2022-07-29T08:40:15.581Z,2.30
2022-07-29T08:42:58.511Z,3.10
2022-07-29T08:45:47.592Z,2.83
2022-07-29T08:48:31.490Z,2.95
2022-07-29T08:51:16.255Z,2.83
2022-07-29T08:53:59.906Z,2.55
2022-07-29T08:56:44.457Z,2.70
2022-07-29T08:59:29.519Z,3.30
2022-07-29T09:02:20.639Z,3.35
2022-07-29T09:05:04.095Z,3.03
2022-07-29T09:07:48.999Z,3.00
2022-07-29T09:10:32.300Z,3.03
2022-07-29T09:13:16.716Z,3.15
2022-07-29T09:15:59.717Z,3.08
2022-07-29T09:18:43.915Z,3.22
2022-07-29T09:21:44.381Z,3.50
2022-07-29T09:24:37.702Z,3.33
2022-07-29T09:27:23.720Z,3.47
2022-07-29T09:30:11.478Z,3.03
2022-07-29T09:32:59.287Z,3.22
2022-07-29T09:35:42.382Z,3.13
2022-07-29T09:38:39.568Z,2.90
2022-07-29T09:41:22.634Z,3.40
2022-07-29T09:44:06.972Z,2.75
2022-07-29T09:47:06.932Z,3.60
2022-07-29T09:49:55.739Z,2.65
2022-07-29T09:52:47.795Z,2.83
2022-07-29T09:55:30.852Z,3.33
2022-07-29T09:58:18.432Z,3.42
2022-07-29T10:01:01.658Z,3.08
2022-07-29T10:03:54.667Z,2.53
2022-07-29T10:06:40.072Z,2.78
2022-07-29T10:09:23.140Z,2.35
2022-07-29T10:12:08.279Z,2.80
2022-07-29T10:14:52.325Z,2.58
2022-07-29T10:17:35.369Z,2.40
2022-07-29T10:20:26.783Z,2.40
2022-07-29T10:23:11.410Z,2.45
2022-07-29T10:28:37.370Z,2.28
2022-07-29T10:31:29.324Z,2.40
2022-07-29T10:34:21.174Z,2.38
2022-07-29T10:37:15.310Z,1.90
2022-07-29T10:40:28.321Z,2.80
2022-07-29T10:43:19.950Z,2.28
2022-07-29T10:46:03.935Z,2.00
2022-07-29T10:49:15.295Z,1.77
2022-07-29T10:52:08.995Z,1.60
2022-07-29T10:54:53.611Z,1.73
2022-07-29T10:57:53.881Z,1.92
2022-07-29T11:00:37.778Z,2.55
2022-07-29T11:03:49.611Z,2.78
2022-07-29T11:07:07.878Z,2.67
2022-07-29T11:10:31.242Z,2.10
2022-07-29T11:13:14.846Z,1.83
2022-07-29T11:16:00.316Z,2.05
2022-07-29T11:19:26.375Z,2.30
2022-07-29T11:22:33.075Z,2.05
2022-07-29T11:25:17.158Z,2.10
2022-07-29T11:28:18.530Z,2.70
2022-07-29T11:31:07.967Z,2.10
2022-07-29T11:33:56.074Z,2.78
2022-07-29T11:37:18.515Z,2.08
2022-07-29T11:40:20.185Z,2.13
2022-07-29T11:46:09.431Z,1.90
2022-07-29T11:48:53.934Z,2.17
2022-07-29T11:51:37.331Z,1.95
2022-07-29T11:54:57.458Z,2.35
2022-07-29T11:57:37.762Z,2.08
2022-07-29T12:00:28.679Z,2.20
2022-07-29T12:03:12.896Z,2.45
2022-07-29T12:07:03.291Z,2.70
2022-07-29T12:08:43.427Z,2.00
2022-07-29T12:11:27.071Z,2.10
2022-07-29T12:14:09.959Z,2.00
2022-07-29T12:16:54.324Z,2.03
2022-07-29T12:19:44.534Z,2.42
2022-07-29T12:22:28.386Z,1.70
2022-07-29T12:25:32.263Z,1.80
2022-07-29T12:31:43.661Z,1.80
2022-07-29T12:34:20.018Z,1.70
2022-07-29T12:37:03.216Z,1.75
2022-07-29T12:39:46.329Z,1.60
2022-07-29T12:42:29.248Z,1.70
2022-07-29T12:45:12.563Z,1.55
2022-07-29T12:47:55.647Z,1.70
2022-07-29T12:50:55.047Z,1.90
2022-07-29T12:53:38.955Z,1.45
2022-07-29T12:56:42.337Z,1.95
2022-07-29T12:59:24.849Z,1.85
2022-07-29T13:02:09.355Z,1.75
2022-07-29T13:04:58.543Z,1.70
2022-07-29T13:07:55.604Z,1.52
2022-07-29T13:10:40.195Z,1.58
2022-07-29T13:13:23.134Z,1.70
2022-07-29T13:16:10.014Z,1.40
2022-07-29T13:19:09.399Z,1.25
2022-07-29T13:21:52.336Z,1.20
2022-07-29T13:24:47.500Z,1.00
2022-07-29T13:27:33.126Z,1.20
2022-07-29T13:30:16.077Z,1.10
2022-07-29T13:32:59.013Z,1.13
2022-07-29T13:35:41.981Z,1.10
2022-07-29T13:38:30.847Z,1.02
2022-07-29T13:41:15.642Z,0.90
2022-07-29T13:44:00.602Z,1.10
2022-07-29T13:46:43.577Z,1.00
2022-07-29T13:49:26.776Z,1.00
2022-07-29T13:52:09.695Z,1.08
2022-07-29T13:54:52.583Z,0.80
2022-07-29T13:57:37.890Z,1.00
2022-07-29T14:00:20.923Z,0.98
2022-07-29T14:03:03.886Z,1.30
2022-07-29T14:05:46.812Z,1.00
2022-07-29T14:08:29.741Z,1.00
2022-07-29T14:11:12.701Z,0.90
2022-07-29T14:13:56.962Z,0.90
2022-07-29T14:16:43.789Z,1.10
2022-07-29T14:19:33.071Z,0.90
2022-07-29T14:22:15.971Z,1.10
2022-07-29T14:24:59.404Z,1.30
2022-07-29T14:27:58.591Z,0.93
2022-07-29T14:30:42.954Z,1.00
2022-07-29T14:33:25.869Z,1.05
2022-07-29T14:36:08.958Z,1.20
2022-07-29T14:38:51.858Z,1.10
2022-07-29T14:41:34.974Z,1.10
2022-07-29T14:44:17.906Z,1.05
2022-07-29T14:47:07.559Z,1.20
2022-07-29T14:49:51.010Z,1.20
2022-07-29T14:52:34.128Z,0.80
2022-07-29T14:55:19.741Z,1.00
2022-07-29T14:58:10.931Z,0.98
2022-07-29T15:00:57.350Z,1.33
2022-07-29T15:03:41.743Z,1.13
2022-07-29T15:06:24.732Z,1.30
2022-07-29T15:09:07.756Z,1.20
2022-07-29T15:11:50.718Z,1.27
2022-07-29T15:14:33.716Z,1.30
2022-07-29T15:17:16.638Z,1.20
2022-07-29T15:20:00.971Z,1.20
2022-07-29T15:22:44.291Z,1.17
2022-07-29T15:25:28.215Z,1.30
2022-07-29T15:28:11.412Z,1.25
2022-07-29T15:30:55.418Z,1.10
2022-07-29T15:33:40.052Z,1.10
2022-07-29T15:36:50.654Z,1.10
2022-07-29T15:39:27.396Z,0.93
2022-07-29T15:42:10.316Z,1.10
2022-07-29T15:44:53.258Z,1.30
2022-07-29T15:47:37.316Z,1.10
2022-07-29T15:50:20.438Z,0.90
2022-07-29T15:53:04.871Z,0.93
2022-07-29T15:58:30.522Z,1.08
2022-07-29T16:01:13.768Z,1.20
2022-07-29T16:03:56.766Z,1.10
2022-07-29T16:06:40.005Z,1.13
2022-07-29T16:09:24.462Z,1.10
2022-07-29T16:14:58.613Z,1.05
2022-07-29T16:17:41.569Z,1.20
2022-07-29T16:20:24.547Z,1.17
2022-07-29T16:23:09.504Z,1.60
2022-07-29T16:26:01.502Z,1.40
2022-07-29T16:28:44.656Z,1.40
2022-07-29T16:31:30.192Z,1.50
2022-07-29T16:34:13.132Z,1.35
2022-07-29T16:36:56.059Z,1.25
2022-07-29T16:39:39.169Z,1.30
2022-07-29T16:42:44.447Z,1.17
2022-07-29T16:45:26.601Z,1.60
2022-07-29T16:48:14.465Z,1.52
2022-07-29T16:50:57.374Z,1.50
2022-07-29T16:53:40.444Z,1.58
2022-07-29T16:56:23.568Z,1.52
2022-07-29T16:59:07.878Z,1.23
2022-07-29T17:01:50.867Z,1.27
2022-07-29T17:04:34.030Z,1.42
2022-07-29T17:07:17.048Z,1.45
2022-07-29T17:10:03.857Z,1.40
2022-07-29T17:12:47.458Z,1.60
2022-07-29T17:15:31.762Z,1.50
2022-07-29T17:18:19.341Z,1.27
2022-07-29T17:21:02.316Z,1.40
2022-07-29T17:23:45.513Z,1.67
2022-07-29T17:26:28.496Z,1.70
2022-07-29T17:29:11.593Z,1.42
2022-07-29T17:31:55.923Z,1.50
2022-07-29T17:34:39.704Z,1.65
2022-07-29T17:50:22.051Z,1.33
2022-07-29T17:53:10.777Z,1.45
2022-07-29T17:55:59.971Z,1.20
2022-07-29T17:58:44.473Z,1.05
2022-07-29T18:01:27.804Z,0.82
2022-07-29T18:04:11.326Z,1.10
2022-07-29T18:06:56.333Z,0.88
2022-07-29T18:09:40.155Z,0.85
2022-07-29T18:12:23.326Z,1.00
2022-07-29T18:15:08.552Z,1.10
2022-07-29T18:17:57.499Z,1.00
2022-07-29T18:20:41.190Z,1.00
2022-07-29T18:23:31.631Z,1.20
2022-07-29T18:26:14.775Z,1.30
2022-07-29T18:28:58.313Z,1.13
2022-07-29T18:31:42.362Z,1.40
2022-07-29T18:34:25.605Z,1.08
2022-07-29T18:37:08.767Z,1.27
2022-07-29T18:39:56.031Z,1.30
2022-07-29T18:42:41.650Z,1.10
2022-07-29T18:45:28.381Z,0.80
2022-07-29T18:48:13.148Z,1.20
2022-07-29T18:53:39.557Z,1.08
2022-07-29T18:56:23.924Z,1.40
2022-07-29T18:59:07.261Z,1.60
2022-07-29T19:01:50.400Z,1.48
2022-07-29T19:04:33.639Z,1.35
2022-07-29T19:07:17.507Z,1.15
2022-07-29T19:10:00.917Z,1.30
2022-07-29T19:12:45.423Z,1.20
2022-07-29T19:15:28.716Z,1.15
2022-07-29T19:18:13.264Z,1.58
2022-07-29T19:20:56.206Z,1.40
2022-07-29T19:24:01.907Z,1.70
2022-07-29T19:26:46.636Z,1.70
2022-07-29T19:29:32.374Z,1.30
2022-07-29T19:32:25.362Z,1.60
2022-07-29T19:35:31.054Z,1.27
2022-07-29T19:40:57.365Z,1.00
2022-07-29T19:43:50.452Z,0.90
2022-07-29T19:46:37.217Z,1.20
2022-07-29T19:49:20.232Z,1.27
2022-07-29T19:52:03.359Z,1.35
2022-07-29T19:54:46.508Z,1.60
2022-07-29T19:57:29.857Z,1.17
2022-07-29T20:00:25.233Z,1.45
2022-07-29T20:03:10.150Z,1.42
2022-07-29T20:05:53.296Z,1.70
2022-07-29T20:08:36.424Z,1.70
2022-07-29T20:11:19.510Z,1.50
2022-07-29T20:14:02.462Z,1.77
2022-07-29T20:16:47.602Z,1.48
2022-07-29T20:19:32.920Z,1.55
2022-07-29T20:22:21.249Z,1.67
2022-07-29T20:25:10.142Z,1.30
2022-07-29T20:27:54.334Z,1.35
2022-07-29T20:30:38.385Z,1.58
2022-07-29T20:33:22.032Z,1.80
2022-07-29T20:36:07.382Z,1.70
2022-07-29T20:38:50.437Z,1.73
2022-07-29T20:41:34.146Z,1.50
2022-07-29T20:44:18.865Z,1.67
2022-07-29T20:49:49.281Z,1.38
2022-07-29T20:52:34.007Z,1.33
2022-07-29T20:55:17.585Z,1.27
2022-07-29T20:58:00.637Z,1.58
2022-07-29T21:00:43.709Z,1.70
2022-07-29T21:03:27.264Z,1.40
2022-07-29T21:06:11.394Z,1.90
2022-07-29T21:08:57.933Z,1.90
2022-07-29T21:11:44.357Z,2.08
2022-07-29T21:14:47.292Z,2.30
2022-07-29T21:17:31.544Z,1.90
2022-07-29T21:20:15.148Z,1.73
2022-07-29T21:22:59.012Z,1.77
2022-07-29T21:25:44.904Z,1.85
2022-07-29T21:28:27.234Z,2.10
2022-07-29T21:31:12.479Z,1.60
2022-07-29T21:33:55.622Z,1.48
2022-07-29T21:36:53.967Z,1.80
2022-07-29T21:39:37.141Z,1.42
2022-07-29T21:42:21.669Z,1.60
2022-07-29T21:45:05.264Z,1.67
2022-07-29T21:47:48.208Z,2.03
2022-07-29T21:50:31.280Z,1.63
2022-07-29T21:53:15.855Z,1.48
2022-07-29T21:58:44.065Z,1.50
2022-07-29T22:04:10.026Z,1.40
2022-07-29T22:06:53.011Z,2.05
2022-07-29T22:09:36.006Z,2.15
2022-07-29T22:12:19.065Z,1.95
2022-07-29T22:15:03.731Z,2.38
2022-07-29T22:17:46.739Z,1.90
2022-07-29T22:20:30.926Z,1.98
2022-07-29T22:23:14.015Z,1.95
2022-07-29T22:25:57.279Z,2.33
2022-07-29T22:28:40.583Z,1.88
2022-07-29T22:31:25.055Z,2.50
2022-07-29T22:34:12.840Z,1.83
2022-07-29T22:36:55.878Z,1.77
2022-07-29T22:39:39.105Z,1.63
2022-07-29T22:42:22.171Z,2.33
2022-07-29T22:45:05.824Z,2.28
2022-07-29T22:47:52.438Z,2.55
2022-07-29T22:50:42.315Z,2.10
2022-07-29T22:53:25.439Z,2.28
2022-07-29T22:56:09.789Z,2.13
2022-07-29T22:58:55.460Z,2.30
2022-07-29T23:01:38.745Z,2.13
2022-07-29T23:04:23.893Z,2.20
2022-07-29T23:07:07.019Z,2.10
2022-07-29T23:09:50.076Z,2.45
2022-07-29T23:12:33.119Z,2.33
2022-07-29T23:15:16.156Z,2.33
2022-07-29T23:18:01.297Z,2.05
2022-07-29T23:20:46.021Z,1.77
2022-07-29T23:26:17.027Z,1.67
2022-07-29T23:29:00.167Z,1.77
2022-07-29T23:31:44.278Z,1.70
2022-07-29T23:34:31.497Z,2.42
2022-07-29T23:37:15.958Z,2.00
2022-07-29T23:39:59.069Z,1.88
2022-07-29T23:42:42.940Z,1.77
2022-07-29T23:45:40.020Z,2.33
2022-07-29T23:48:28.168Z,2.40
2022-07-29T23:51:11.144Z,3.05
2022-07-29T23:53:55.584Z,2.88
2022-07-29T23:56:38.678Z,4.05
2022-07-29T23:59:21.727Z,4.40
